sensor_id;sensor_type;location;lat;lon;timestamp;temperature;humidity
24217;DHT22;12356;49.386;8.688;2022-09-03T00:00:08;21.10;32.70
24217;DHT22;12356;49.386;8.688;2022-09-03T00:02:43;21.10;33.00
24217;DHT22;12356;49.386;8.688;2022-09-03T00:05:39;21.10;33.00
24217;DHT22;12356;49.386;8.688;2022-09-03T00:08:19;21.10;33.20
24217;DHT22;12356;49.386;8.688;2022-09-03T00:13:35;21.10;33.70
24217;DHT22;12356;49.386;8.688;2022-09-03T00:16:10;21.10;33.60
24217;DHT22;12356;49.386;8.688;2022-09-03T00:18:45;21.10;33.60
24217;DHT22;12356;49.386;8.688;2022-09-03T00:23:56;21.10;33.50
24217;DHT22;12356;49.386;8.688;2022-09-03T00:26:30;21.10;33.70
24217;DHT22;12356;49.386;8.688;2022-09-03T00:29:11;21.10;33.70
24217;DHT22;12356;49.386;8.688;2022-09-03T00:31:48;21.10;33.30
24217;DHT22;12356;49.386;8.688;2022-09-03T00:34:37;21.20;33.30
24217;DHT22;12356;49.386;8.688;2022-09-03T00:37:10;21.20;33.60
24217;DHT22;12356;49.386;8.688;2022-09-03T00:39:42;21.10;33.60
24217;DHT22;12356;49.386;8.688;2022-09-03T00:50:14;21.20;33.60
24217;DHT22;12356;49.386;8.688;2022-09-03T00:52:58;21.20;33.40
24217;DHT22;12356;49.386;8.688;2022-09-03T00:58:28;21.20;33.80
24217;DHT22;12356;49.386;8.688;2022-09-03T01:01:09;21.10;35.50
24217;DHT22;12356;49.386;8.688;2022-09-03T01:07:12;21.00;35.70
24217;DHT22;12356;49.386;8.688;2022-09-03T01:18:24;20.90;33.90
24217;DHT22;12356;49.386;8.688;2022-09-03T01:27:13;20.90;34.20
24217;DHT22;12356;49.386;8.688;2022-09-03T01:30:04;20.90;33.90
24217;DHT22;12356;49.386;8.688;2022-09-03T01:33:06;20.90;34.20
24217;DHT22;12356;49.386;8.688;2022-09-03T01:41:43;20.90;34.40
24217;DHT22;12356;49.386;8.688;2022-09-03T01:47:37;20.80;33.80
24217;DHT22;12356;49.386;8.688;2022-09-03T01:59:04;20.80;34.40
24217;DHT22;12356;49.386;8.688;2022-09-03T02:01:40;20.80;34.10
24217;DHT22;12356;49.386;8.688;2022-09-03T02:04:19;20.80;33.80
24217;DHT22;12356;49.386;8.688;2022-09-03T02:06:52;20.80;34.20
24217;DHT22;12356;49.386;8.688;2022-09-03T02:09:23;20.80;34.20
24217;DHT22;12356;49.386;8.688;2022-09-03T02:12:15;20.70;34.60
24217;DHT22;12356;49.386;8.688;2022-09-03T02:14:49;20.70;34.50
24217;DHT22;12356;49.386;8.688;2022-09-03T02:17:20;20.70;34.60
24217;DHT22;12356;49.386;8.688;2022-09-03T02:19:51;20.70;35.60
24217;DHT22;12356;49.386;8.688;2022-09-03T02:22:21;20.80;34.70
24217;DHT22;12356;49.386;8.688;2022-09-03T02:24:52;20.70;34.80
24217;DHT22;12356;49.386;8.688;2022-09-03T02:27:23;20.70;35.00
24217;DHT22;12356;49.386;8.688;2022-09-03T02:29:53;20.80;34.80
24217;DHT22;12356;49.386;8.688;2022-09-03T02:32:24;20.80;34.90
24217;DHT22;12356;49.386;8.688;2022-09-03T02:34:56;20.80;34.80
24217;DHT22;12356;49.386;8.688;2022-09-03T02:37:27;20.80;35.00
24217;DHT22;12356;49.386;8.688;2022-09-03T02:39:57;20.80;34.90
24217;DHT22;12356;49.386;8.688;2022-09-03T02:42:28;20.80;35.10
24217;DHT22;12356;49.386;8.688;2022-09-03T02:45:23;20.70;35.10
24217;DHT22;12356;49.386;8.688;2022-09-03T02:47:58;20.70;35.10
24217;DHT22;12356;49.386;8.688;2022-09-03T02:50:29;20.70;35.00
24217;DHT22;12356;49.386;8.688;2022-09-03T02:53:00;20.70;35.30
24217;DHT22;12356;49.386;8.688;2022-09-03T02:55:30;20.70;35.20
24217;DHT22;12356;49.386;8.688;2022-09-03T02:58:01;20.70;35.30
24217;DHT22;12356;49.386;8.688;2022-09-03T03:00:32;20.70;35.30
24217;DHT22;12356;49.386;8.688;2022-09-03T03:03:04;20.60;35.30
24217;DHT22;12356;49.386;8.688;2022-09-03T03:05:43;20.70;35.50
24217;DHT22;12356;49.386;8.688;2022-09-03T03:08:15;20.60;35.80
24217;DHT22;12356;49.386;8.688;2022-09-03T03:10:47;20.60;35.70
24217;DHT22;12356;49.386;8.688;2022-09-03T03:13:18;20.60;35.70
24217;DHT22;12356;49.386;8.688;2022-09-03T03:15:49;20.60;35.90
24217;DHT22;12356;49.386;8.688;2022-09-03T03:18:20;20.70;35.80
24217;DHT22;12356;49.386;8.688;2022-09-03T03:20:50;20.60;35.70
24217;DHT22;12356;49.386;8.688;2022-09-03T03:23:21;20.60;36.00
24217;DHT22;12356;49.386;8.688;2022-09-03T03:25:51;20.60;36.30
24217;DHT22;12356;49.386;8.688;2022-09-03T03:28:22;20.60;36.40
24217;DHT22;12356;49.386;8.688;2022-09-03T03:30:52;20.60;36.10
24217;DHT22;12356;49.386;8.688;2022-09-03T03:33:23;20.60;36.20
24217;DHT22;12356;49.386;8.688;2022-09-03T03:35:54;20.60;36.40
24217;DHT22;12356;49.386;8.688;2022-09-03T03:38:24;20.60;36.30
24217;DHT22;12356;49.386;8.688;2022-09-03T03:40:55;20.60;36.40
24217;DHT22;12356;49.386;8.688;2022-09-03T03:43:26;20.60;36.50
24217;DHT22;12356;49.386;8.688;2022-09-03T03:45:57;20.50;36.40
24217;DHT22;12356;49.386;8.688;2022-09-03T03:48:28;20.60;36.50
24217;DHT22;12356;49.386;8.688;2022-09-03T03:51:03;20.60;36.60
24217;DHT22;12356;49.386;8.688;2022-09-03T03:53:37;20.60;36.50
24217;DHT22;12356;49.386;8.688;2022-09-03T03:56:10;20.60;36.60
24217;DHT22;12356;49.386;8.688;2022-09-03T03:58:42;20.50;36.40
24217;DHT22;12356;49.386;8.688;2022-09-03T04:01:19;20.50;36.50
24217;DHT22;12356;49.386;8.688;2022-09-03T04:03:51;20.50;36.80
24217;DHT22;12356;49.386;8.688;2022-09-03T04:06:22;20.40;36.80
24217;DHT22;12356;49.386;8.688;2022-09-03T04:08:52;20.40;37.10
24217;DHT22;12356;49.386;8.688;2022-09-03T04:11:24;20.40;36.90
24217;DHT22;12356;49.386;8.688;2022-09-03T04:13:55;20.40;37.10
24217;DHT22;12356;49.386;8.688;2022-09-03T04:16:26;20.30;37.30
24217;DHT22;12356;49.386;8.688;2022-09-03T04:18:58;20.30;37.30
24217;DHT22;12356;49.386;8.688;2022-09-03T04:21:29;20.30;37.00
24217;DHT22;12356;49.386;8.688;2022-09-03T04:24:00;20.30;37.40
24217;DHT22;12356;49.386;8.688;2022-09-03T04:26:32;20.40;37.50
24217;DHT22;12356;49.386;8.688;2022-09-03T04:29:05;20.30;37.40
24217;DHT22;12356;49.386;8.688;2022-09-03T04:31:37;20.30;37.80
24217;DHT22;12356;49.386;8.688;2022-09-03T04:34:08;20.30;37.70
24217;DHT22;12356;49.386;8.688;2022-09-03T04:36:39;20.30;38.30
24217;DHT22;12356;49.386;8.688;2022-09-03T04:39:10;20.20;38.80
24217;DHT22;12356;49.386;8.688;2022-09-03T04:41:41;20.20;39.40
24217;DHT22;12356;49.386;8.688;2022-09-03T04:44:11;20.20;39.40
24217;DHT22;12356;49.386;8.688;2022-09-03T04:46:42;20.10;40.00
24217;DHT22;12356;49.386;8.688;2022-09-03T04:49:13;20.10;40.80
24217;DHT22;12356;49.386;8.688;2022-09-03T04:51:44;20.10;41.90
24217;DHT22;12356;49.386;8.688;2022-09-03T04:54:15;20.10;42.40
24217;DHT22;12356;49.386;8.688;2022-09-03T04:56:45;20.00;44.90
24217;DHT22;12356;49.386;8.688;2022-09-03T04:59:16;19.90;46.20
24217;DHT22;12356;49.386;8.688;2022-09-03T05:01:46;19.80;46.30
24217;DHT22;12356;49.386;8.688;2022-09-03T05:04:17;19.80;47.40
24217;DHT22;12356;49.386;8.688;2022-09-03T05:06:49;19.70;47.90
24217;DHT22;12356;49.386;8.688;2022-09-03T05:09:19;19.70;48.60
24217;DHT22;12356;49.386;8.688;2022-09-03T05:11:50;19.70;49.00
24217;DHT22;12356;49.386;8.688;2022-09-03T05:14:21;19.70;49.40
24217;DHT22;12356;49.386;8.688;2022-09-03T05:16:52;19.70;47.90
24217;DHT22;12356;49.386;8.688;2022-09-03T05:19:23;19.70;47.00
24217;DHT22;12356;49.386;8.688;2022-09-03T05:21:53;19.70;46.90
24217;DHT22;12356;49.386;8.688;2022-09-03T05:24:24;19.70;47.30
24217;DHT22;12356;49.386;8.688;2022-09-03T05:26:54;19.60;47.30
24217;DHT22;12356;49.386;8.688;2022-09-03T05:29:25;19.70;47.20
24217;DHT22;12356;49.386;8.688;2022-09-03T05:31:56;19.70;47.00
24217;DHT22;12356;49.386;8.688;2022-09-03T05:34:27;19.60;45.90
24217;DHT22;12356;49.386;8.688;2022-09-03T05:36:58;19.60;46.20
24217;DHT22;12356;49.386;8.688;2022-09-03T05:39:28;19.70;46.40
24217;DHT22;12356;49.386;8.688;2022-09-03T05:41:59;19.70;46.10
24217;DHT22;12356;49.386;8.688;2022-09-03T05:44:29;19.70;46.20
24217;DHT22;12356;49.386;8.688;2022-09-03T05:47:00;19.70;45.90
24217;DHT22;12356;49.386;8.688;2022-09-03T05:49:31;19.80;45.60
24217;DHT22;12356;49.386;8.688;2022-09-03T05:52:02;19.80;45.70
24217;DHT22;12356;49.386;8.688;2022-09-03T05:54:32;19.70;46.10
24217;DHT22;12356;49.386;8.688;2022-09-03T05:57:03;19.70;47.10
24217;DHT22;12356;49.386;8.688;2022-09-03T05:59:34;19.70;47.40
24217;DHT22;12356;49.386;8.688;2022-09-03T06:02:05;19.80;48.10
24217;DHT22;12356;49.386;8.688;2022-09-03T06:04:35;19.80;48.00
24217;DHT22;12356;49.386;8.688;2022-09-03T06:07:06;19.80;48.00
24217;DHT22;12356;49.386;8.688;2022-09-03T06:09:37;19.90;48.10
24217;DHT22;12356;49.386;8.688;2022-09-03T06:12:07;19.90;49.10
24217;DHT22;12356;49.386;8.688;2022-09-03T06:14:38;20.00;48.30
24217;DHT22;12356;49.386;8.688;2022-09-03T06:17:09;20.00;49.30
24217;DHT22;12356;49.386;8.688;2022-09-03T06:19:40;20.00;50.50
24217;DHT22;12356;49.386;8.688;2022-09-03T06:22:11;20.00;50.80
24217;DHT22;12356;49.386;8.688;2022-09-03T06:24:41;20.00;51.00
24217;DHT22;12356;49.386;8.688;2022-09-03T06:27:12;20.00;51.20
24217;DHT22;12356;49.386;8.688;2022-09-03T06:29:42;20.10;52.10
24217;DHT22;12356;49.386;8.688;2022-09-03T06:32:14;20.00;52.50
24217;DHT22;12356;49.386;8.688;2022-09-03T06:34:44;20.10;53.70
24217;DHT22;12356;49.386;8.688;2022-09-03T06:37:15;20.10;55.80
24217;DHT22;12356;49.386;8.688;2022-09-03T06:39:46;20.10;60.70
24217;DHT22;12356;49.386;8.688;2022-09-03T06:42:17;20.00;62.50
24217;DHT22;12356;49.386;8.688;2022-09-03T06:44:47;19.90;65.30
24217;DHT22;12356;49.386;8.688;2022-09-03T06:47:18;19.80;67.70
24217;DHT22;12356;49.386;8.688;2022-09-03T06:49:48;19.70;70.20
24217;DHT22;12356;49.386;8.688;2022-09-03T06:52:19;19.60;72.20
24217;DHT22;12356;49.386;8.688;2022-09-03T06:54:50;19.40;74.80
24217;DHT22;12356;49.386;8.688;2022-09-03T06:57:20;19.30;75.90
24217;DHT22;12356;49.386;8.688;2022-09-03T06:59:51;19.10;78.00
24217;DHT22;12356;49.386;8.688;2022-09-03T07:02:23;19.00;77.70
24217;DHT22;12356;49.386;8.688;2022-09-03T07:04:54;19.00;79.30
24217;DHT22;12356;49.386;8.688;2022-09-03T07:07:25;19.00;81.40
24217;DHT22;12356;49.386;8.688;2022-09-03T07:09:55;19.00;81.90
24217;DHT22;12356;49.386;8.688;2022-09-03T07:12:26;19.00;83.40
24217;DHT22;12356;49.386;8.688;2022-09-03T07:14:56;19.00;84.40
24217;DHT22;12356;49.386;8.688;2022-09-03T07:17:27;19.00;84.80
24217;DHT22;12356;49.386;8.688;2022-09-03T07:19:58;19.00;84.60
24217;DHT22;12356;49.386;8.688;2022-09-03T07:22:29;19.00;85.30
24217;DHT22;12356;49.386;8.688;2022-09-03T07:24:59;19.00;86.10
24217;DHT22;12356;49.386;8.688;2022-09-03T07:27:31;19.10;86.90
24217;DHT22;12356;49.386;8.688;2022-09-03T07:30:04;19.10;87.50
24217;DHT22;12356;49.386;8.688;2022-09-03T07:32:39;19.10;87.50
24217;DHT22;12356;49.386;8.688;2022-09-03T07:35:10;19.00;87.80
24217;DHT22;12356;49.386;8.688;2022-09-03T07:37:41;19.00;87.70
24217;DHT22;12356;49.386;8.688;2022-09-03T07:40:12;18.90;87.90
24217;DHT22;12356;49.386;8.688;2022-09-03T07:42:45;18.90;88.30
24217;DHT22;12356;49.386;8.688;2022-09-03T07:45:17;19.00;89.90
24217;DHT22;12356;49.386;8.688;2022-09-03T07:47:48;19.00;89.40
24217;DHT22;12356;49.386;8.688;2022-09-03T07:50:19;19.00;88.80
24217;DHT22;12356;49.386;8.688;2022-09-03T07:52:56;19.00;88.80
24217;DHT22;12356;49.386;8.688;2022-09-03T07:55:28;19.00;88.60
24217;DHT22;12356;49.386;8.688;2022-09-03T07:57:58;19.10;88.80
24217;DHT22;12356;49.386;8.688;2022-09-03T08:00:29;19.00;89.80
24217;DHT22;12356;49.386;8.688;2022-09-03T08:03:03;19.10;90.50
24217;DHT22;12356;49.386;8.688;2022-09-03T08:05:37;19.10;91.00
24217;DHT22;12356;49.386;8.688;2022-09-03T08:08:08;19.00;90.80
24217;DHT22;12356;49.386;8.688;2022-09-03T08:10:39;19.00;90.60
24217;DHT22;12356;49.386;8.688;2022-09-03T08:13:10;19.00;90.60
24217;DHT22;12356;49.386;8.688;2022-09-03T08:15:41;19.00;90.60
24217;DHT22;12356;49.386;8.688;2022-09-03T08:18:12;18.90;90.50
24217;DHT22;12356;49.386;8.688;2022-09-03T08:20:43;18.90;90.30
24217;DHT22;12356;49.386;8.688;2022-09-03T08:23:14;18.90;90.50
24217;DHT22;12356;49.386;8.688;2022-09-03T08:25:45;18.80;90.00
24217;DHT22;12356;49.386;8.688;2022-09-03T08:28:16;18.70;89.30
24217;DHT22;12356;49.386;8.688;2022-09-03T08:30:46;18.70;90.10
24217;DHT22;12356;49.386;8.688;2022-09-03T08:33:17;18.80;90.10
24217;DHT22;12356;49.386;8.688;2022-09-03T08:36:15;18.80;90.30
24217;DHT22;12356;49.386;8.688;2022-09-03T08:38:46;18.80;90.60
24217;DHT22;12356;49.386;8.688;2022-09-03T08:44:08;18.70;90.70
24217;DHT22;12356;49.386;8.688;2022-09-03T08:50:03;18.60;87.80
24217;DHT22;12356;49.386;8.688;2022-09-03T08:58:12;18.40;85.80
24217;DHT22;12356;49.386;8.688;2022-09-03T09:01:46;18.20;81.70
24217;DHT22;12356;49.386;8.688;2022-09-03T09:21:19;18.10;88.40
24217;DHT22;12356;49.386;8.688;2022-09-03T09:23:53;18.00;86.60
24217;DHT22;12356;49.386;8.688;2022-09-03T09:26:27;18.00;85.60
24217;DHT22;12356;49.386;8.688;2022-09-03T09:29:07;18.10;86.50
24217;DHT22;12356;49.386;8.688;2022-09-03T09:31:40;18.10;88.60
24217;DHT22;12356;49.386;8.688;2022-09-03T09:34:13;18.20;90.70
24217;DHT22;12356;49.386;8.688;2022-09-03T09:36:52;18.20;91.70
24217;DHT22;12356;49.386;8.688;2022-09-03T09:39:23;18.30;92.40
24217;DHT22;12356;49.386;8.688;2022-09-03T09:41:58;18.30;92.00
24217;DHT22;12356;49.386;8.688;2022-09-03T09:44:29;18.40;92.30
24217;DHT22;12356;49.386;8.688;2022-09-03T09:47:05;18.50;92.60
24217;DHT22;12356;49.386;8.688;2022-09-03T09:52:16;18.60;90.40
24217;DHT22;12356;49.386;8.688;2022-09-03T09:54:47;18.60;90.60
24217;DHT22;12356;49.386;8.688;2022-09-03T09:57:24;18.60;89.10
24217;DHT22;12356;49.386;8.688;2022-09-03T10:00:06;18.70;90.00
24217;DHT22;12356;49.386;8.688;2022-09-03T10:02:51;18.80;90.00
24217;DHT22;12356;49.386;8.688;2022-09-03T10:05:29;18.70;90.40
24217;DHT22;12356;49.386;8.688;2022-09-03T10:08:03;18.60;90.80
24217;DHT22;12356;49.386;8.688;2022-09-03T10:10:40;18.70;91.40
24217;DHT22;12356;49.386;8.688;2022-09-03T10:13:20;18.70;91.80
24217;DHT22;12356;49.386;8.688;2022-09-03T10:16:45;18.80;91.40
24217;DHT22;12356;49.386;8.688;2022-09-03T10:21:48;18.90;92.20
24217;DHT22;12356;49.386;8.688;2022-09-03T10:27:09;19.00;91.70
24217;DHT22;12356;49.386;8.688;2022-09-03T10:29:43;19.10;91.20
24217;DHT22;12356;49.386;8.688;2022-09-03T10:35:29;19.20;91.60
24217;DHT22;12356;49.386;8.688;2022-09-03T10:38:22;19.20;91.60
24217;DHT22;12356;49.386;8.688;2022-09-03T10:52:14;19.50;91.00
24217;DHT22;12356;49.386;8.688;2022-09-03T10:57:50;19.70;91.80
24217;DHT22;12356;49.386;8.688;2022-09-03T11:00:24;19.70;91.80
24217;DHT22;12356;49.386;8.688;2022-09-03T11:05:54;19.80;93.10
24217;DHT22;12356;49.386;8.688;2022-09-03T11:11:13;19.90;92.70
24217;DHT22;12356;49.386;8.688;2022-09-03T11:13:57;19.90;92.60
24217;DHT22;12356;49.386;8.688;2022-09-03T11:16:53;20.00;92.40
24217;DHT22;12356;49.386;8.688;2022-09-03T11:19:46;20.10;92.40
24217;DHT22;12356;49.386;8.688;2022-09-03T11:22:18;20.20;91.80
24217;DHT22;12356;49.386;8.688;2022-09-03T11:24:53;20.20;91.70
24217;DHT22;12356;49.386;8.688;2022-09-03T11:33:34;20.40;89.50
24217;DHT22;12356;49.386;8.688;2022-09-03T11:36:10;20.40;90.20
24217;DHT22;12356;49.386;8.688;2022-09-03T11:38:41;20.50;90.60
24217;DHT22;12356;49.386;8.688;2022-09-03T11:41:33;20.50;89.30
24217;DHT22;12356;49.386;8.688;2022-09-03T11:44:18;20.50;90.20
24217;DHT22;12356;49.386;8.688;2022-09-03T11:46:57;20.50;89.80
24217;DHT22;12356;49.386;8.688;2022-09-03T11:49:30;20.60;89.30
24217;DHT22;12356;49.386;8.688;2022-09-03T11:52:03;20.60;88.70
24217;DHT22;12356;49.386;8.688;2022-09-03T11:54:44;20.60;86.60
24217;DHT22;12356;49.386;8.688;2022-09-03T11:57:22;20.60;87.30
24217;DHT22;12356;49.386;8.688;2022-09-03T11:59:53;20.60;86.00
24217;DHT22;12356;49.386;8.688;2022-09-03T12:02:27;20.60;87.10
24217;DHT22;12356;49.386;8.688;2022-09-03T12:13:56;20.70;80.40
24217;DHT22;12356;49.386;8.688;2022-09-03T12:16:53;20.80;81.60
24217;DHT22;12356;49.386;8.688;2022-09-03T12:22:00;20.90;82.70
24217;DHT22;12356;49.386;8.688;2022-09-03T12:24:33;21.00;82.20
24217;DHT22;12356;49.386;8.688;2022-09-03T12:27:09;21.00;78.90
24217;DHT22;12356;49.386;8.688;2022-09-03T12:29:59;21.10;77.70
24217;DHT22;12356;49.386;8.688;2022-09-03T12:32:34;21.10;76.20
24217;DHT22;12356;49.386;8.688;2022-09-03T12:37:47;21.30;75.60
24217;DHT22;12356;49.386;8.688;2022-09-03T12:40:20;21.40;75.50
24217;DHT22;12356;49.386;8.688;2022-09-03T12:42:52;21.40;75.60
24217;DHT22;12356;49.386;8.688;2022-09-03T12:45:25;21.50;75.30
24217;DHT22;12356;49.386;8.688;2022-09-03T12:47:56;21.50;72.60
24217;DHT22;12356;49.386;8.688;2022-09-03T12:50:27;21.60;71.70
24217;DHT22;12356;49.386;8.688;2022-09-03T12:53:00;21.60;73.40
24217;DHT22;12356;49.386;8.688;2022-09-03T12:55:45;21.60;72.30
24217;DHT22;12356;49.386;8.688;2022-09-03T12:58:25;21.60;71.90
24217;DHT22;12356;49.386;8.688;2022-09-03T13:01:11;21.70;72.60
24217;DHT22;12356;49.386;8.688;2022-09-03T13:03:49;21.70;70.50
24217;DHT22;12356;49.386;8.688;2022-09-03T13:06:32;21.80;70.40
24217;DHT22;12356;49.386;8.688;2022-09-03T13:09:05;21.90;72.90
24217;DHT22;12356;49.386;8.688;2022-09-03T13:11:38;22.00;72.60
24217;DHT22;12356;49.386;8.688;2022-09-03T13:14:11;22.00;73.00
24217;DHT22;12356;49.386;8.688;2022-09-03T13:19:49;22.20;71.80
24217;DHT22;12356;49.386;8.688;2022-09-03T13:22:36;22.20;72.40
24217;DHT22;12356;49.386;8.688;2022-09-03T13:25:24;22.20;72.00
24217;DHT22;12356;49.386;8.688;2022-09-03T13:34:00;22.20;70.70
24217;DHT22;12356;49.386;8.688;2022-09-03T13:36:48;22.20;70.80
24217;DHT22;12356;49.386;8.688;2022-09-03T13:39:37;22.20;72.30
24217;DHT22;12356;49.386;8.688;2022-09-03T13:42:32;22.20;71.30
24217;DHT22;12356;49.386;8.688;2022-09-03T13:47:58;22.20;71.90
24217;DHT22;12356;49.386;8.688;2022-09-03T13:51:37;22.20;71.80
24217;DHT22;12356;49.386;8.688;2022-09-03T13:53:59;22.20;70.70
24217;DHT22;12356;49.386;8.688;2022-09-03T13:59:43;22.20;70.60
24217;DHT22;12356;49.386;8.688;2022-09-03T14:05:18;22.20;71.20
24217;DHT22;12356;49.386;8.688;2022-09-03T14:10:53;22.30;71.50
24217;DHT22;12356;49.386;8.688;2022-09-03T14:19:22;22.50;70.70
24217;DHT22;12356;49.386;8.688;2022-09-03T14:22:20;22.50;71.20
24217;DHT22;12356;49.386;8.688;2022-09-03T14:24:55;22.60;71.40
24217;DHT22;12356;49.386;8.688;2022-09-03T14:27:31;22.60;70.50
24217;DHT22;12356;49.386;8.688;2022-09-03T14:30:16;22.70;70.10
24217;DHT22;12356;49.386;8.688;2022-09-03T14:44:01;22.60;70.20
24217;DHT22;12356;49.386;8.688;2022-09-03T14:46:59;22.60;70.50
24217;DHT22;12356;49.386;8.688;2022-09-03T14:52:35;22.60;70.00
24217;DHT22;12356;49.386;8.688;2022-09-03T14:55:28;22.60;70.10
24217;DHT22;12356;49.386;8.688;2022-09-03T14:58:42;22.60;71.30
24217;DHT22;12356;49.386;8.688;2022-09-03T15:01:27;22.70;70.40
24217;DHT22;12356;49.386;8.688;2022-09-03T15:04:24;22.70;70.10
24217;DHT22;12356;49.386;8.688;2022-09-03T15:07:23;22.70;70.70
24217;DHT22;12356;49.386;8.688;2022-09-03T15:10:34;22.70;69.70
24217;DHT22;12356;49.386;8.688;2022-09-03T15:13:07;22.70;70.80
24217;DHT22;12356;49.386;8.688;2022-09-03T15:18:25;22.60;71.80
24217;DHT22;12356;49.386;8.688;2022-09-03T15:34:54;22.40;72.90
24217;DHT22;12356;49.386;8.688;2022-09-03T15:37:53;22.40;73.20
24217;DHT22;12356;49.386;8.688;2022-09-03T15:40:32;22.30;73.10
24217;DHT22;12356;49.386;8.688;2022-09-03T15:51:30;22.30;74.10
24217;DHT22;12356;49.386;8.688;2022-09-03T15:54:18;22.20;74.70
24217;DHT22;12356;49.386;8.688;2022-09-03T15:57:02;22.20;74.20
24217;DHT22;12356;49.386;8.688;2022-09-03T16:02:22;22.20;74.30
24217;DHT22;12356;49.386;8.688;2022-09-03T16:05:04;22.20;74.00
24217;DHT22;12356;49.386;8.688;2022-09-03T16:10:09;22.10;75.10
24217;DHT22;12356;49.386;8.688;2022-09-03T16:13:03;22.10;75.10
24217;DHT22;12356;49.386;8.688;2022-09-03T16:15:56;22.10;75.10
24217;DHT22;12356;49.386;8.688;2022-09-03T16:18:37;22.10;75.60
24217;DHT22;12356;49.386;8.688;2022-09-03T16:21:31;22.00;76.70
24217;DHT22;12356;49.386;8.688;2022-09-03T16:24:12;22.00;77.30
24217;DHT22;12356;49.386;8.688;2022-09-03T16:27:01;22.00;77.40
24217;DHT22;12356;49.386;8.688;2022-09-03T16:29:32;21.90;77.50
24217;DHT22;12356;49.386;8.688;2022-09-03T16:37:51;21.90;79.20
24217;DHT22;12356;49.386;8.688;2022-09-03T16:40:51;21.80;79.00
24217;DHT22;12356;49.386;8.688;2022-09-03T16:43:25;21.90;79.20
24217;DHT22;12356;49.386;8.688;2022-09-03T16:46:21;21.90;80.30
24217;DHT22;12356;49.386;8.688;2022-09-03T16:49:09;21.80;80.30
24217;DHT22;12356;49.386;8.688;2022-09-03T16:54:46;21.80;80.60
24217;DHT22;12356;49.386;8.688;2022-09-03T16:57:35;21.70;80.80
24217;DHT22;12356;49.386;8.688;2022-09-03T17:00:15;21.70;81.30
24217;DHT22;12356;49.386;8.688;2022-09-03T17:22:32;21.60;81.40
24217;DHT22;12356;49.386;8.688;2022-09-03T17:25:37;21.60;81.20
24217;DHT22;12356;49.386;8.688;2022-09-03T17:31:53;21.60;81.30
24217;DHT22;12356;49.386;8.688;2022-09-03T17:34:59;21.60;82.10
24217;DHT22;12356;49.386;8.688;2022-09-03T17:38:07;21.60;83.00
24217;DHT22;12356;49.386;8.688;2022-09-03T17:40:59;21.50;82.40
24217;DHT22;12356;49.386;8.688;2022-09-03T17:43:49;21.60;82.40
24217;DHT22;12356;49.386;8.688;2022-09-03T17:46:31;21.60;80.80
24217;DHT22;12356;49.386;8.688;2022-09-03T17:49:06;21.50;79.90
24217;DHT22;12356;49.386;8.688;2022-09-03T17:51:46;21.60;80.30
24217;DHT22;12356;49.386;8.688;2022-09-03T17:57:04;21.50;80.60
24217;DHT22;12356;49.386;8.688;2022-09-03T18:00:05;21.50;80.20
24217;DHT22;12356;49.386;8.688;2022-09-03T18:02:59;21.40;78.80
24217;DHT22;12356;49.386;8.688;2022-09-03T18:05:51;21.40;79.00
24217;DHT22;12356;49.386;8.688;2022-09-03T18:09:00;21.30;79.40
24217;DHT22;12356;49.386;8.688;2022-09-03T18:11:40;21.30;79.80
24217;DHT22;12356;49.386;8.688;2022-09-03T18:14:27;21.20;79.90
24217;DHT22;12356;49.386;8.688;2022-09-03T18:17:08;21.20;79.70
24217;DHT22;12356;49.386;8.688;2022-09-03T18:20:04;21.20;79.60
24217;DHT22;12356;49.386;8.688;2022-09-03T18:23:09;21.20;80.10
24217;DHT22;12356;49.386;8.688;2022-09-03T18:26:04;21.20;78.70
24217;DHT22;12356;49.386;8.688;2022-09-03T18:29:02;21.10;79.10
24217;DHT22;12356;49.386;8.688;2022-09-03T18:31:51;21.10;79.40
24217;DHT22;12356;49.386;8.688;2022-09-03T18:34:40;21.10;79.60
24217;DHT22;12356;49.386;8.688;2022-09-03T18:37:30;21.10;79.30
24217;DHT22;12356;49.386;8.688;2022-09-03T18:40:27;21.00;78.90
24217;DHT22;12356;49.386;8.688;2022-09-03T18:46:53;20.90;79.50
24217;DHT22;12356;49.386;8.688;2022-09-03T19:08:35;20.60;80.50
24217;DHT22;12356;49.386;8.688;2022-09-03T19:11:30;20.60;81.10
24217;DHT22;12356;49.386;8.688;2022-09-03T19:14:28;20.50;80.90
24217;DHT22;12356;49.386;8.688;2022-09-03T19:18:05;20.50;81.00
24217;DHT22;12356;49.386;8.688;2022-09-03T19:23:48;20.40;81.20
24217;DHT22;12356;49.386;8.688;2022-09-03T19:26:47;20.40;81.40
24217;DHT22;12356;49.386;8.688;2022-09-03T19:30:08;20.30;81.30
24217;DHT22;12356;49.386;8.688;2022-09-03T19:33:32;20.30;81.70
24217;DHT22;12356;49.386;8.688;2022-09-03T19:39:28;20.30;81.80
24217;DHT22;12356;49.386;8.688;2022-09-03T19:49:10;20.30;82.20
24217;DHT22;12356;49.386;8.688;2022-09-03T19:52:14;20.30;82.10
24217;DHT22;12356;49.386;8.688;2022-09-03T19:55:05;20.20;82.10
24217;DHT22;12356;49.386;8.688;2022-09-03T19:57:58;20.10;82.40
24217;DHT22;12356;49.386;8.688;2022-09-03T20:00:48;20.10;82.60
24217;DHT22;12356;49.386;8.688;2022-09-03T20:03:37;20.00;82.80
24217;DHT22;12356;49.386;8.688;2022-09-03T20:06:28;20.10;82.70
24217;DHT22;12356;49.386;8.688;2022-09-03T20:09:21;20.10;82.10
24217;DHT22;12356;49.386;8.688;2022-09-03T20:12:16;20.00;82.00
24217;DHT22;12356;49.386;8.688;2022-09-03T20:14:47;20.00;82.10
24217;DHT22;12356;49.386;8.688;2022-09-03T20:17:55;20.00;82.20
24217;DHT22;12356;49.386;8.688;2022-09-03T20:20:33;20.00;82.50
24217;DHT22;12356;49.386;8.688;2022-09-03T20:23:37;20.00;82.10
24217;DHT22;12356;49.386;8.688;2022-09-03T20:31:48;20.00;82.50
24217;DHT22;12356;49.386;8.688;2022-09-03T20:37:33;20.00;82.30
24217;DHT22;12356;49.386;8.688;2022-09-03T20:40:19;20.00;81.90
24217;DHT22;12356;49.386;8.688;2022-09-03T20:43:02;19.90;82.30
24217;DHT22;12356;49.386;8.688;2022-09-03T20:45:59;19.90;82.30
24217;DHT22;12356;49.386;8.688;2022-09-03T20:51:15;19.90;82.50
24217;DHT22;12356;49.386;8.688;2022-09-03T20:56:39;19.80;83.00
24217;DHT22;12356;49.386;8.688;2022-09-03T21:05:00;19.70;83.10
24217;DHT22;12356;49.386;8.688;2022-09-03T21:13:35;19.70;83.40
24217;DHT22;12356;49.386;8.688;2022-09-03T21:19:18;19.50;83.80
24217;DHT22;12356;49.386;8.688;2022-09-03T21:24:46;19.50;84.20
24217;DHT22;12356;49.386;8.688;2022-09-03T21:27:21;19.50;84.20
24217;DHT22;12356;49.386;8.688;2022-09-03T21:32:44;19.50;84.00
24217;DHT22;12356;49.386;8.688;2022-09-03T21:35:30;19.60;84.20
24217;DHT22;12356;49.386;8.688;2022-09-03T21:38:13;19.60;83.70
24217;DHT22;12356;49.386;8.688;2022-09-03T21:43:37;19.60;83.40
24217;DHT22;12356;49.386;8.688;2022-09-03T21:46:16;19.50;83.70
24217;DHT22;12356;49.386;8.688;2022-09-03T21:48:58;19.40;83.10
24217;DHT22;12356;49.386;8.688;2022-09-03T21:54:29;19.40;83.50